Terminal Aerodrome Forecast
Issued by NWS Sterling, VA

Home | Current Version | Previous Version | Text Only | Print | Product List | Glossary On
Versions: 1 2 3 4 5 6 7 8 9 10 11 12 13 14
165
FTUS41 KLWX 231730
TAFCHO
TAF
KCHO 231730Z 2318/2418 20006KT P6SM FEW070
     FM241200 VRB03KT 2SM BR SCT130
     FM241500 19005KT P6SM SCT150=

USA.gov is the U.S. government's official web portal to all federal, state and local government web resources and services.